Oak Island, NC (28465)

9:40 PM EDT on October 21, 2014 (GMT -0400)
Oak Island - Marsh Hen | Change Station
CLOSE
Current Station
Personal Weather Station
Location: Oak Island, NC
Elevation: 3 ft
Nearby Weather Stations

Elev 3 ft 33.91 °N, 78.14 °W | Updated 1 minute ago

Mostly Cloudy
Mostly Cloudy
70.2 °F
Feels Like 73 °F
N
0.0
Wind Variable Wind from ENE
Gusts 0.0 mph

Today
High -- | Low -- °F
--% Chance of Precip.
Yesterday
High -- | Low -- °F
Precip. -- in
7:22 AM 6:31 PM
Waning Crescent, 3% visible
Pressure 29.89 in
Visibility 10.0 miles
Clouds Mostly Cloudy 8000 ft
Heat Index 73 °F
Dew Point 61 °F
Humidity 72%
Rainfall 0.00 in
Snow Depth Not available.
UV 0 out of 12
Pollen 2.80 out of 12
Air Quality Not available.
Flu Activity Sporadic
METAR KSUT 220115Z AUTO 26006KT 10SM BKN080 21/15 A2989 RMK AO2 T02060153

More Conditions Fewer Conditions

Pressure 29.89 in
Visibility 10.0 miles
Clouds Mostly Cloudy 8000 ft
Heat Index 73 °F
Dew Point 61 °F
Humidity 72%
Rainfall 0.00 in
Snow Depth Not available.
UV 0 out of 12
Pollen 2.80 out of 12
Air Quality Not available.
Flu Activity Sporadic
METAR KSUT 220115Z AUTO 26006KT 10SM BKN080 21/15 A2989 RMK AO2 T02060153

More Conditions Fewer Conditions

10-Day Weather Forecast

Almanac

Astronomy

Oct. 21, 2014 Rise Set
Actual Time 7:22 AM EDT 6:31 PM EDT
Civil Twilight 6:56 AM EDT 6:56 PM EDT
Nautical Twilight 6:27 AM EDT 7:25 PM EDT
Astronomical Twilight 5:58 AM EDT 7:54 PM EDT
Moon 5:10 AM EDT (10/21) 5:19 PM EDT (10/21)
Length of Visible Light 11h 59m
Length of Day
11h 09m
Tomorrow will be 1m 58s shorter.
Waning Crescent, 3% of the Moon is Illuminated
Today
Waning Crescent
Oct 23
New
Oct 30
First Quarter
Nov 6
Full
Nov 14
Last Quarter

Today's Extremes

State Highs State Lows

Community

WunderPhotos

Upload Photos

1,763,843 photos uploaded!

Nearby

Snow Depth

Station Depth Elevation
No new snow has been reported.

Earthquake Activity

City Distance Mag. Time & Date
No recent earthquake activity has been reported nearby.
Minimum magnitude displayed is 2.5.

Coastal Water Temperatures

Place Temperature
Johnny Mercer Pier, Wrightsville Beach, NC 75.0 °F
Springmaid Pier, SC 72.0 °F

Nearby Weather Stations